createdAt,value
2023-04-07T00:01:39.447Z,101606.75
2023-04-07T00:04:06.204Z,101606.88
2023-04-07T00:06:32.825Z,101609.50
2023-04-07T00:08:59.262Z,101607.06
2023-04-07T00:11:25.779Z,101607.19
2023-04-07T00:13:52.368Z,101601.28
2023-04-07T00:16:19.167Z,101601.13
2023-04-07T00:18:45.708Z,101603.75
2023-04-07T00:21:12.184Z,101604.72
2023-04-07T00:23:38.684Z,101597.84
2023-04-07T00:26:05.251Z,101611.09
2023-04-07T00:28:31.784Z,101612.06
2023-04-07T00:30:58.200Z,101612.06
2023-04-07T00:33:24.698Z,101611.25
2023-04-07T00:35:51.336Z,101615.69
2023-04-07T00:38:17.838Z,101615.81
2023-04-07T00:40:44.307Z,101611.41
2023-04-07T00:43:10.932Z,101615.00
2023-04-07T00:45:38.003Z,101609.09
2023-04-07T00:48:05.503Z,101604.16
2023-04-07T00:50:32.232Z,101603.16
2023-04-07T00:52:58.953Z,101610.22
2023-04-07T00:55:25.369Z,101616.56
2023-04-07T00:57:52.031Z,101612.97
2023-04-07T01:00:18.621Z,101616.56
2023-04-07T01:02:57.714Z,101612.31
2023-04-07T01:05:36.565Z,101613.94
2023-04-07T01:08:15.532Z,101612.97
2023-04-07T01:10:49.818Z,101605.25
2023-04-07T01:13:38.676Z,101608.72
2023-04-07T01:16:11.818Z,101612.16
2023-04-07T01:18:40.332Z,101615.59
2023-04-07T01:21:09.543Z,101601.66
2023-04-07T01:23:52.995Z,101608.88
2023-04-07T01:26:29.272Z,101611.34
2023-04-07T01:29:17.396Z,101611.50
2023-04-07T01:31:45.992Z,101609.84
2023-04-07T01:34:14.345Z,101613.28
2023-04-07T01:36:42.523Z,101618.38
2023-04-07T01:39:09.909Z,101612.31
2023-04-07T01:41:38.450Z,101614.13
2023-04-07T01:44:08.110Z,101613.13
2023-04-07T01:46:34.750Z,101609.84
2023-04-07T01:49:02.082Z,101615.91
2023-04-07T01:51:31.021Z,101612.47
2023-04-07T01:53:59.051Z,101614.25
2023-04-07T01:56:25.621Z,101612.47
2023-04-07T01:58:52.125Z,101611.63
2023-04-07T02:01:18.688Z,101613.44
2023-04-07T02:04:05.292Z,101608.19
2023-04-07T02:06:35.480Z,101615.22
2023-04-07T02:09:07.229Z,101609.00
2023-04-07T02:11:35.738Z,101617.84
2023-04-07T02:14:04.034Z,101611.78
2023-04-07T02:16:31.798Z,101617.84
2023-04-07T02:18:59.623Z,101609.97
2023-04-07T02:21:28.246Z,101617.19
2023-04-07T02:23:54.986Z,101618.66
2023-04-07T02:26:21.805Z,101619.66
2023-04-07T02:28:48.324Z,101624.75
2023-04-07T02:31:14.910Z,101620.47
2023-04-07T02:33:41.513Z,101619.50
2023-04-07T02:36:08.113Z,101620.34
2023-04-07T02:38:34.596Z,101619.50
2023-04-07T02:41:01.062Z,101620.34
2023-04-07T02:43:27.562Z,101615.09
2023-04-07T02:45:54.869Z,101619.50
2023-04-07T02:48:21.348Z,101612.47
2023-04-07T02:50:47.782Z,101617.84
2023-04-07T02:53:14.426Z,101616.88
2023-04-07T02:55:40.884Z,101625.72
2023-04-07T02:58:07.450Z,101620.47
2023-04-07T03:00:34.545Z,101623.09
2023-04-07T03:03:01.899Z,101616.06
2023-04-07T03:05:28.504Z,101621.97
2023-04-07T03:07:55.019Z,101625.59
2023-04-07T03:10:21.571Z,101627.22
2023-04-07T03:12:47.996Z,101626.41
2023-04-07T03:15:14.450Z,101630.84
2023-04-07T03:17:41.081Z,101626.53
2023-04-07T03:20:08.276Z,101624.09
2023-04-07T03:22:34.681Z,101626.72
2023-04-07T03:25:01.465Z,101621.47
2023-04-07T03:27:27.914Z,101619.66
2023-04-07T03:29:54.484Z,101626.72
2023-04-07T03:32:20.944Z,101624.91
2023-04-07T03:34:47.378Z,101636.22
2023-04-07T03:37:13.955Z,101635.41
2023-04-07T03:39:41.113Z,101632.59
2023-04-07T03:42:07.758Z,101638.00
2023-04-07T03:44:34.293Z,101639.66
2023-04-07T03:47:01.273Z,101634.41
2023-04-07T03:49:27.814Z,101636.22
2023-04-07T03:51:54.271Z,101631.78
2023-04-07T03:54:21.030Z,101635.22
2023-04-07T03:56:47.513Z,101629.03
2023-04-07T03:59:14.011Z,101632.59
2023-04-07T04:01:40.634Z,101631.78
2023-04-07T04:04:07.376Z,101630.16
2023-04-07T04:06:34.025Z,101624.91
2023-04-07T04:09:00.469Z,101633.75
2023-04-07T04:11:27.549Z,101634.56
2023-04-07T04:13:54.369Z,101640.63
2023-04-07T04:16:21.341Z,101632.78
2023-04-07T04:18:47.868Z,101638.84
2023-04-07T04:21:14.361Z,101638.84
2023-04-07T04:23:40.807Z,101641.47
2023-04-07T04:26:07.214Z,101641.47
2023-04-07T04:28:33.695Z,101650.16
2023-04-07T04:31:00.322Z,101647.69
2023-04-07T04:33:26.900Z,101657.19
2023-04-07T04:35:53.480Z,101658.19
2023-04-07T04:38:19.941Z,101658.19
2023-04-07T04:40:46.458Z,101658.19
2023-04-07T04:43:12.930Z,101661.63
2023-04-07T04:45:39.414Z,101660.81
2023-04-07T04:48:06.404Z,101665.22
2023-04-07T04:50:32.995Z,101668.66
2023-04-07T04:52:59.422Z,101672.28
2023-04-07T04:55:25.904Z,101673.91
2023-04-07T04:57:52.449Z,101669.66
2023-04-07T05:00:19.333Z,101677.53
2023-04-07T05:02:47.135Z,101678.47
2023-04-07T05:05:13.831Z,101677.81
2023-04-07T05:07:40.517Z,101679.63
2023-04-07T05:10:08.281Z,101680.56
2023-04-07T05:12:35.213Z,101679.75
2023-04-07T05:15:01.714Z,101678.22
2023-04-07T05:17:28.297Z,101681.72
2023-04-07T05:19:54.784Z,101679.09
2023-04-07T05:22:21.449Z,101686.94
2023-04-07T05:24:48.060Z,101684.16
2023-04-07T05:27:14.491Z,101691.22
2023-04-07T05:29:40.944Z,101687.63
2023-04-07T05:32:07.525Z,101691.22
2023-04-07T05:34:34.102Z,101698.91
2023-04-07T05:37:00.835Z,101698.09
2023-04-07T05:39:27.303Z,101708.59
2023-04-07T05:41:53.841Z,101701.72
2023-04-07T05:44:20.401Z,101699.91
2023-04-07T05:46:46.914Z,101702.38
2023-04-07T05:49:20.161Z,101701.41
2023-04-07T05:51:48.838Z,101705.69
2023-04-07T05:54:15.879Z,101707.31
2023-04-07T05:56:42.451Z,101705.50
2023-04-07T05:59:10.013Z,101710.09
2023-04-07T06:01:36.600Z,101712.56
2023-04-07T06:04:04.225Z,101713.38
2023-04-07T06:06:31.389Z,101714.06
2023-04-07T06:08:58.024Z,101724.41
2023-04-07T06:11:24.513Z,101724.28
2023-04-07T06:13:51.314Z,101724.00
2023-04-07T06:16:19.505Z,101735.97
2023-04-07T06:18:46.359Z,101720.22
2023-04-07T06:21:12.949Z,101728.09
2023-04-07T06:23:39.449Z,101729.75
2023-04-07T06:26:06.147Z,101736.50
2023-04-07T06:28:32.681Z,101736.19
2023-04-07T06:30:59.797Z,101739.19
2023-04-07T06:33:26.501Z,101736.28
2023-04-07T06:35:53.116Z,101735.31
2023-04-07T06:38:19.688Z,101735.31
2023-04-07T06:40:46.327Z,101735.97
2023-04-07T06:43:12.981Z,101739.28
2023-04-07T06:45:39.513Z,101737.50
2023-04-07T06:48:06.529Z,101742.56
2023-04-07T06:50:33.081Z,101738.69
2023-04-07T06:52:59.529Z,101748.28
2023-04-07T06:55:27.255Z,101752.25
2023-04-07T06:57:53.821Z,101751.53
2023-04-07T07:00:20.697Z,101756.31
2023-04-07T07:02:47.216Z,101760.00
2023-04-07T07:05:13.836Z,101758.38
2023-04-07T07:07:40.683Z,101767.59
2023-04-07T07:10:10.295Z,101759.53
2023-04-07T07:12:37.278Z,101764.31
2023-04-07T07:15:04.203Z,101764.66
2023-04-07T07:17:30.855Z,101765.31
2023-04-07T07:19:57.349Z,101764.50
2023-04-07T07:22:23.831Z,101772.25
2023-04-07T07:24:51.158Z,101771.63
2023-04-07T07:27:17.703Z,101777.38
2023-04-07T07:29:44.136Z,101779.34
2023-04-07T07:32:10.709Z,101782.97
2023-04-07T07:34:37.255Z,101778.16
2023-04-07T07:37:03.986Z,101787.00
2023-04-07T07:39:30.547Z,101796.41
2023-04-07T07:41:57.331Z,101790.63
2023-04-07T07:44:23.885Z,101792.44
2023-04-07T07:46:51.299Z,101792.44
2023-04-07T07:49:18.009Z,101797.50
2023-04-07T07:51:46.129Z,101803.28
2023-04-07T07:54:12.743Z,101796.75
2023-04-07T07:56:39.242Z,101798.41
2023-04-07T07:59:08.773Z,101808.59
2023-04-07T08:01:35.466Z,101809.00
2023-04-07T08:04:02.178Z,101807.03
2023-04-07T08:06:29.313Z,101805.53
2023-04-07T08:08:56.125Z,101817.53
2023-04-07T08:11:23.145Z,101816.25
2023-04-07T08:13:49.868Z,101811.00
2023-04-07T08:16:16.689Z,101817.25
2023-04-07T08:18:43.200Z,101817.53
2023-04-07T08:21:09.697Z,101816.41
2023-04-07T08:23:36.348Z,101820.09
2023-04-07T08:26:02.857Z,101826.16
2023-04-07T08:28:29.338Z,101828.50
2023-04-07T08:30:55.745Z,101827.81
2023-04-07T08:33:22.381Z,101826.81
2023-04-07T08:35:48.877Z,101832.28
2023-04-07T08:38:15.537Z,101828.53
2023-04-07T08:40:42.825Z,101830.41
2023-04-07T08:43:10.630Z,101833.78
2023-04-07T08:45:40.641Z,101835.41
2023-04-07T08:48:17.798Z,101833.47
2023-04-07T08:50:51.543Z,101843.03
2023-04-07T08:53:23.389Z,101841.78
2023-04-07T08:55:50.069Z,101850.00
2023-04-07T08:58:17.214Z,101848.84
2023-04-07T09:00:45.836Z,101852.78
2023-04-07T09:03:13.000Z,101851.81
2023-04-07T09:05:39.854Z,101861.66
2023-04-07T09:08:06.836Z,101865.38
2023-04-07T09:10:33.310Z,101863.84
2023-04-07T09:12:59.905Z,101864.69
2023-04-07T09:15:31.540Z,101865.53
2023-04-07T09:17:59.212Z,101864.25
2023-04-07T09:20:25.847Z,101873.59
2023-04-07T09:22:52.498Z,101869.75
2023-04-07T09:25:24.027Z,101870.09
2023-04-07T09:27:55.201Z,101868.59
2023-04-07T09:30:22.158Z,101869.50
2023-04-07T09:32:48.891Z,101872.16
2023-04-07T09:35:16.111Z,101872.25
2023-04-07T09:37:42.722Z,101873.91
2023-04-07T09:40:09.730Z,101871.25
2023-04-07T09:42:45.374Z,101873.19
2023-04-07T09:45:14.532Z,101876.00
2023-04-07T09:47:45.179Z,101876.44
2023-04-07T09:50:12.299Z,101876.88
2023-04-07T09:52:52.518Z,101871.13
2023-04-07T09:55:23.784Z,101880.66
2023-04-07T09:57:51.289Z,101878.91
2023-04-07T10:00:18.042Z,101875.63
2023-04-07T10:02:44.943Z,101889.50
2023-04-07T10:05:11.902Z,101891.00
2023-04-07T10:07:40.032Z,101880.66
2023-04-07T10:10:08.513Z,101889.22
2023-04-07T10:12:37.482Z,101883.47
2023-04-07T10:15:04.932Z,101885.59
2023-04-07T10:17:36.671Z,101878.91
2023-04-07T10:20:07.111Z,101894.19
2023-04-07T10:22:36.139Z,101895.28
2023-04-07T10:25:10.624Z,101900.53
2023-04-07T10:27:53.390Z,101895.94
2023-04-07T10:30:26.261Z,101903.13
2023-04-07T10:32:54.401Z,101903.56
2023-04-07T10:35:22.282Z,101903.38
2023-04-07T10:38:06.992Z,101899.47
2023-04-07T10:40:34.477Z,101910.94
2023-04-07T10:43:01.255Z,101910.63
2023-04-07T10:45:45.697Z,101908.00
2023-04-07T10:48:13.854Z,101913.75
2023-04-07T10:50:40.530Z,101915.38
2023-04-07T10:53:12.394Z,101918.22
2023-04-07T10:55:40.337Z,101922.38
2023-04-07T10:58:31.061Z,101923.59
2023-04-07T11:00:57.553Z,101929.25
2023-04-07T11:03:25.235Z,101917.91
2023-04-07T11:05:52.156Z,101921.34
2023-04-07T11:08:43.057Z,101925.75
2023-04-07T11:11:11.192Z,101933.22
2023-04-07T11:13:48.657Z,101932.06
2023-04-07T11:16:17.478Z,101936.63
2023-04-07T11:18:45.002Z,101933.22
2023-04-07T11:21:11.522Z,101931.44
2023-04-07T11:23:39.392Z,101933.22
2023-04-07T11:26:06.138Z,101933.91
2023-04-07T11:28:32.896Z,101942.16
2023-04-07T11:31:00.196Z,101934.94
2023-04-07T11:33:32.128Z,101942.53
2023-04-07T11:36:01.373Z,101946.50
2023-04-07T11:38:30.610Z,101945.88
2023-04-07T11:41:11.042Z,101943.97
2023-04-07T11:43:37.901Z,101950.66
2023-04-07T11:46:18.398Z,101949.69
2023-04-07T11:48:47.240Z,101941.59
2023-04-07T11:51:23.679Z,101946.56
2023-04-07T11:53:56.901Z,101952.25
2023-04-07T11:56:23.479Z,101950.06
2023-04-07T11:58:54.947Z,101953.88
2023-04-07T12:01:24.601Z,101956.75
2023-04-07T12:04:04.887Z,101958.09
2023-04-07T12:06:35.045Z,101960.22
2023-04-07T12:09:02.880Z,101966.81
2023-04-07T12:11:30.095Z,101970.25
2023-04-07T12:13:57.180Z,101973.56
2023-04-07T12:16:24.285Z,101976.84
2023-04-07T12:18:54.340Z,101982.59
2023-04-07T12:21:20.919Z,101978.66
2023-04-07T12:23:48.588Z,101983.81
2023-04-07T12:26:15.469Z,101980.53
2023-04-07T12:28:41.903Z,101982.22
2023-04-07T12:31:08.335Z,101986.19
2023-04-07T12:33:34.889Z,101982.94
2023-04-07T12:36:01.553Z,101982.06
2023-04-07T12:38:28.713Z,101988.31
2023-04-07T12:40:55.244Z,101987.19
2023-04-07T12:43:21.636Z,101990.31
2023-04-07T12:45:48.144Z,101995.88
2023-04-07T12:48:16.247Z,101997.34
2023-04-07T12:50:42.800Z,101990.75
2023-04-07T12:53:09.426Z,101994.56
2023-04-07T12:55:36.652Z,101995.06
2023-04-07T12:58:03.502Z,102010.69
2023-04-07T13:00:30.441Z,102001.97
2023-04-07T13:02:57.469Z,102005.09
2023-04-07T13:05:24.194Z,102002.09
2023-04-07T13:07:50.701Z,102011.97
2023-04-07T13:10:17.422Z,102007.16
2023-04-07T13:12:43.866Z,102011.78
2023-04-07T13:15:10.511Z,102013.22
2023-04-07T13:17:37.081Z,102004.50
2023-04-07T13:20:05.009Z,102013.53
2023-04-07T13:22:32.204Z,102012.19
2023-04-07T13:25:00.221Z,102011.50
2023-04-07T13:27:27.547Z,102019.53
2023-04-07T13:29:53.974Z,102017.09
2023-04-07T13:32:20.432Z,102018.69
2023-04-07T13:34:46.989Z,102014.88
2023-04-07T13:37:13.603Z,102017.66
2023-04-07T13:39:40.171Z,102013.22
2023-04-07T13:42:07.013Z,102019.16
2023-04-07T13:44:34.510Z,102018.47
2023-04-07T13:47:01.430Z,102024.25
2023-04-07T13:49:28.025Z,102014.72
2023-04-07T13:51:54.543Z,102020.19
2023-04-07T13:54:21.257Z,102021.00
2023-04-07T13:56:50.991Z,102024.00
2023-04-07T13:59:17.431Z,102021.59
2023-04-07T14:01:43.982Z,102019.28
2023-04-07T14:04:10.732Z,102020.78
2023-04-07T14:06:37.993Z,102024.91
2023-04-07T14:09:06.305Z,102026.38
2023-04-07T14:11:34.692Z,102025.25
2023-04-07T14:14:02.010Z,102026.38
2023-04-07T14:16:28.663Z,102029.19
2023-04-07T14:18:56.009Z,102032.66
2023-04-07T14:21:22.723Z,102029.22
2023-04-07T14:23:49.144Z,102031.25
2023-04-07T14:26:15.733Z,102034.22
2023-04-07T14:28:42.185Z,102035.81
2023-04-07T14:31:13.006Z,102035.78
2023-04-07T14:33:39.626Z,102039.41
2023-04-07T14:36:06.242Z,102038.47
2023-04-07T14:38:34.834Z,102036.50
2023-04-07T14:43:32.603Z,102031.38
2023-04-07T14:45:59.834Z,102036.50
2023-04-07T14:48:26.742Z,102044.72
2023-04-07T14:51:06.025Z,102039.41
2023-04-07T14:53:35.029Z,102041.47
2023-04-07T14:56:06.982Z,102037.94
2023-04-07T14:58:33.823Z,102043.97
2023-04-07T15:01:00.225Z,102049.53
2023-04-07T15:03:26.816Z,102049.72
2023-04-07T15:05:53.638Z,102052.34
2023-04-07T15:08:20.274Z,102049.84
2023-04-07T15:10:46.690Z,102059.03
2023-04-07T15:13:13.116Z,102058.69
2023-04-07T15:15:39.543Z,102063.94
2023-04-07T15:18:06.098Z,102061.78
2023-04-07T15:20:32.900Z,102059.75
2023-04-07T15:23:01.394Z,102065.00
2023-04-07T15:25:28.616Z,102060.88
2023-04-07T15:27:55.232Z,102071.19
2023-04-07T15:30:21.788Z,102065.41
2023-04-07T15:33:02.674Z,102069.00
2023-04-07T15:35:29.178Z,102075.25
2023-04-07T15:37:55.895Z,102068.47
2023-04-07T15:40:22.759Z,102071.09
2023-04-07T15:42:49.165Z,102079.81
2023-04-07T15:45:15.610Z,102077.88
2023-04-07T15:47:42.189Z,102080.97
2023-04-07T15:50:09.298Z,102078.94
2023-04-07T15:52:35.697Z,102084.34
2023-04-07T15:55:02.174Z,102085.72
2023-04-07T15:57:28.544Z,102087.94
2023-04-07T15:59:54.979Z,102090.44
2023-04-07T16:02:21.635Z,102090.97
2023-04-07T16:04:48.307Z,102090.56
2023-04-07T16:07:14.760Z,102092.00
2023-04-07T16:09:41.245Z,102094.25
2023-04-07T16:12:07.736Z,102101.03
2023-04-07T16:14:34.302Z,102093.81
2023-04-07T16:17:00.976Z,102091.31
2023-04-07T16:19:27.779Z,102094.25
2023-04-07T16:21:54.780Z,102094.56
2023-04-07T16:24:21.765Z,102097.03
2023-04-07T16:26:50.431Z,102095.09
2023-04-07T16:29:18.229Z,102099.22
2023-04-07T16:31:44.754Z,102104.34
2023-04-07T16:34:12.565Z,102101.31
2023-04-07T16:36:39.327Z,102106.28
2023-04-07T16:39:05.908Z,102102.81
2023-04-07T16:41:32.618Z,102109.91
2023-04-07T16:43:59.135Z,102114.78
2023-04-07T16:46:29.856Z,102126.19
2023-04-07T16:48:56.481Z,102121.06
2023-04-07T16:51:24.154Z,102122.47
2023-04-07T16:53:51.111Z,102121.94
2023-04-07T16:56:22.294Z,102131.63
2023-04-07T16:58:49.685Z,102121.13
2023-04-07T17:01:17.080Z,102130.13
2023-04-07T17:03:44.176Z,102135.91
2023-04-07T17:06:10.738Z,102135.38
2023-04-07T17:08:38.552Z,102136.06
2023-04-07T17:11:09.558Z,102136.44
2023-04-07T17:13:36.541Z,102146.69
2023-04-07T17:16:04.073Z,102142.25
2023-04-07T17:18:32.221Z,102138.63
2023-04-07T17:20:58.984Z,102141.13
2023-04-07T17:23:25.748Z,102144.56
2023-04-07T17:25:52.199Z,102148.31
2023-04-07T17:28:18.615Z,102152.91
2023-04-07T17:30:45.103Z,102162.72
2023-04-07T17:33:12.300Z,102166.06
2023-04-07T17:35:38.989Z,102165.06
2023-04-07T17:38:06.707Z,102175.31
2023-04-07T17:40:33.238Z,102179.03
2023-04-07T17:43:00.153Z,102180.69
2023-04-07T17:45:26.752Z,102179.03
2023-04-07T17:47:53.356Z,102182.28
2023-04-07T17:50:19.806Z,102186.31
2023-04-07T17:52:46.806Z,102193.50
2023-04-07T17:55:13.309Z,102192.94
2023-04-07T17:57:40.534Z,102197.00
2023-04-07T18:00:08.191Z,102191.75
2023-04-07T18:02:35.101Z,102193.25
2023-04-07T18:05:01.879Z,102202.97
2023-04-07T18:07:29.422Z,102197.16
2023-04-07T18:09:57.930Z,102202.00
2023-04-07T18:12:24.601Z,102200.34
2023-04-07T18:14:51.010Z,102208.22
2023-04-07T18:17:17.457Z,102206.72
2023-04-07T18:19:44.020Z,102211.84
2023-04-07T18:22:10.537Z,102210.03
2023-04-07T18:24:37.094Z,102214.47
2023-04-07T18:27:04.138Z,102223.59
2023-04-07T18:29:30.978Z,102218.63
2023-04-07T18:31:57.571Z,102222.09
2023-04-07T18:34:26.164Z,102231.06
2023-04-07T18:36:53.832Z,102229.44
2023-04-07T18:39:20.506Z,102230.09
2023-04-07T18:41:48.315Z,102231.91
2023-04-07T18:44:14.916Z,102233.56
2023-04-07T18:46:41.474Z,102240.19
2023-04-07T18:49:08.149Z,102237.69
2023-04-07T18:51:34.916Z,102243.13
2023-04-07T18:54:01.389Z,102255.28
2023-04-07T18:56:28.523Z,102252.78
2023-04-07T18:58:54.989Z,102251.13
2023-04-07T19:01:21.747Z,102266.75
2023-04-07T19:03:48.636Z,102266.59
2023-04-07T19:06:16.701Z,102269.22
2023-04-07T19:08:43.363Z,102271.84
2023-04-07T19:11:10.239Z,102271.84
2023-04-07T19:13:36.732Z,102284.03
2023-04-07T19:16:03.612Z,102283.34
2023-04-07T19:18:31.797Z,102284.03
2023-04-07T19:20:58.422Z,102277.28
2023-04-07T19:23:25.342Z,102280.03
2023-04-07T19:25:51.792Z,102281.97
2023-04-07T19:28:18.434Z,102277.69
2023-04-07T19:30:45.013Z,102289.84
2023-04-07T19:33:11.949Z,102278.38
2023-04-07T19:35:41.520Z,102288.34
2023-04-07T19:38:08.064Z,102292.75
2023-04-07T19:40:36.437Z,102295.22
2023-04-07T19:43:03.243Z,102298.28
2023-04-07T19:45:29.769Z,102299.38
2023-04-07T19:47:56.948Z,102301.91
2023-04-07T19:50:23.686Z,102305.50
2023-04-07T19:52:53.171Z,102305.50
2023-04-07T19:55:19.762Z,102305.19
2023-04-07T19:57:47.054Z,102304.25
2023-04-07T20:00:13.911Z,102311.69
2023-04-07T20:02:40.507Z,102306.59
2023-04-07T20:05:07.314Z,102317.38
2023-04-07T20:07:33.823Z,102314.88
2023-04-07T20:10:01.202Z,102320.84
2023-04-07T20:12:27.705Z,102325.13
2023-04-07T20:14:54.125Z,102327.75
2023-04-07T20:17:20.672Z,102320.84
2023-04-07T20:19:47.925Z,102318.34
2023-04-07T20:22:14.403Z,102324.44
2023-04-07T20:24:40.886Z,102328.00
2023-04-07T20:27:07.322Z,102331.63
2023-04-07T20:29:33.827Z,102326.63
2023-04-07T20:32:00.279Z,102336.06
2023-04-07T20:34:26.704Z,102329.97
2023-04-07T20:36:53.780Z,102331.06
2023-04-07T20:39:20.249Z,102343.09
2023-04-07T20:41:46.939Z,102332.72
2023-04-07T20:44:13.410Z,102339.09
2023-04-07T20:46:40.082Z,102340.75
2023-04-07T20:49:07.853Z,102344.34
2023-04-07T20:51:36.718Z,102348.06
2023-04-07T20:54:03.743Z,102346.69
2023-04-07T20:56:30.290Z,102341.28
2023-04-07T20:58:56.714Z,102350.97
2023-04-07T21:01:23.319Z,102340.75
2023-04-07T21:03:49.894Z,102348.78
2023-04-07T21:06:16.393Z,102354.69
2023-04-07T21:08:42.829Z,102350.31
2023-04-07T21:11:09.665Z,102355.56
2023-04-07T21:13:36.097Z,102355.41
2023-04-07T21:16:04.915Z,102355.41
2023-04-07T21:18:31.928Z,102356.22
2023-04-07T21:20:59.634Z,102359.00
2023-04-07T21:23:26.108Z,102355.69
2023-04-07T21:25:52.551Z,102362.44
2023-04-07T21:28:19.009Z,102367.00
2023-04-07T21:30:45.771Z,102356.22
2023-04-07T21:33:14.092Z,102353.31
2023-04-07T21:35:40.838Z,102354.78
2023-04-07T21:38:07.289Z,102354.09
2023-04-07T21:40:33.758Z,102357.94
2023-04-07T21:43:00.285Z,102361.53
2023-04-07T21:45:26.842Z,102367.88
2023-04-07T21:47:53.322Z,102355.72
2023-04-07T21:50:19.838Z,102357.78
2023-04-07T21:52:50.620Z,102350.31
2023-04-07T21:55:18.838Z,102360.97
2023-04-07T21:57:45.467Z,102363.59
2023-04-07T22:00:12.941Z,102366.34
2023-04-07T22:02:39.836Z,102366.59
2023-04-07T22:05:06.532Z,102369.47
2023-04-07T22:07:33.623Z,102369.06
2023-04-07T22:10:00.335Z,102373.47
2023-04-07T22:12:26.835Z,102368.25
2023-04-07T22:14:53.283Z,102382.34
2023-04-07T22:17:19.768Z,102380.78
2023-04-07T22:19:46.459Z,102384.66
2023-04-07T22:22:13.036Z,102377.84
2023-04-07T22:24:39.463Z,102388.50
2023-04-07T22:27:06.058Z,102388.34
2023-04-07T22:29:32.497Z,102403.97
2023-04-07T22:31:58.951Z,102388.34
2023-04-07T22:34:25.377Z,102403.28
2023-04-07T22:36:51.827Z,102397.44
2023-04-07T22:39:18.226Z,102399.75
2023-04-07T22:41:44.634Z,102411.38
2023-04-07T22:44:11.137Z,102408.75
2023-04-07T22:46:37.596Z,102412.84
2023-04-07T22:49:04.989Z,102422.47
2023-04-07T22:51:31.434Z,102414.75
2023-04-07T22:53:57.906Z,102424.41
2023-04-07T22:56:24.614Z,102415.97
2023-04-07T22:58:51.647Z,102421.22
2023-04-07T23:01:18.485Z,102422.06
2023-04-07T23:03:45.342Z,102424.81
2023-04-07T23:06:11.854Z,102428.25
2023-04-07T23:08:38.340Z,102428.38
2023-04-07T23:11:09.777Z,102425.91
2023-04-07T23:13:36.250Z,102430.31
2023-04-07T23:16:03.927Z,102431.00
2023-04-07T23:18:31.457Z,102432.47
2023-04-07T23:20:57.855Z,102427.22
2023-04-07T23:23:24.315Z,102435.88
2023-04-07T23:25:50.802Z,102434.09
2023-04-07T23:28:17.220Z,102433.00
2023-04-07T23:30:43.693Z,102424.16
2023-04-07T23:33:10.201Z,102437.44
2023-04-07T23:35:36.745Z,102431.22
2023-04-07T23:38:03.351Z,102437.94
2023-04-07T23:40:29.917Z,102442.19
2023-04-07T23:42:56.604Z,102443.31
2023-04-07T23:45:23.041Z,102434.88
2023-04-07T23:47:49.482Z,102433.06
2023-04-07T23:50:16.340Z,102440.78
2023-04-07T23:52:44.060Z,102433.56
2023-04-07T23:55:10.652Z,102440.59
2023-04-07T23:57:37.203Z,102443.63
